Time;durP1;ratioP1;P1;durP2;ratioP2;P2;SDS_P1;SDS_P2;PMS_P1;PMS_P2;Temp;Humidity;BMP_temperature;BMP_pressure;BME280_temperature;BME280_humidity;BME280_pressure;Samples;Min_cycle;Max_cycle;Signal;HPM_P1;HPM_P2
2024/03/18 00:02:28;;;;;;;6.00;4.90;;;12.60;99.90;;;;;;5063984;28;21093;-80
2024/03/18 00:04:54;;;;;;;6.97;5.55;;;12.60;99.90;;;;;;5051665;28;20678;-79
2024/03/18 00:07:20;;;;;;;6.80;4.63;;;12.50;99.90;;;;;;5074487;28;20639;-79
2024/03/18 00:09:46;;;;;;;6.77;4.63;;;12.50;99.90;;;;;;5044059;28;20177;-80
2024/03/18 00:12:12;;;;;;;5.18;4.45;;;12.40;99.90;;;;;;5049953;28;20575;-80
2024/03/18 00:14:38;;;;;;;7.33;4.90;;;12.40;99.90;;;;;;5066563;28;20174;-79
2024/03/18 00:17:07;;;;;;;6.47;4.77;;;12.30;99.90;;;;;;5056703;28;21193;-81
2024/03/18 00:19:33;;;;;;;5.03;3.60;;;12.20;99.90;;;;;;5057622;28;20572;-79
2024/03/18 00:21:59;;;;;;;5.40;4.60;;;12.20;99.90;;;;;;5075119;28;20582;-82
2024/03/18 00:24:25;;;;;;;7.82;5.43;;;12.20;99.90;;;;;;5075172;28;20188;-80
2024/03/18 00:26:51;;;;;;;8.07;5.73;;;12.20;99.90;;;;;;5069888;28;20686;-79
2024/03/18 00:29:16;;;;;;;6.50;4.83;;;12.10;99.90;;;;;;5019805;28;20195;-80
2024/03/18 00:31:42;;;;;;;8.70;4.83;;;12.20;99.90;;;;;;5036306;28;20642;-79
2024/03/18 00:34:08;;;;;;;6.20;5.03;;;12.20;99.90;;;;;;5051069;28;20532;-79
2024/03/18 00:36:34;;;;;;;7.57;4.88;;;12.10;99.90;;;;;;5063221;28;20246;-79
2024/03/18 00:39:00;;;;;;;5.70;4.80;;;12.10;99.90;;;;;;5062396;28;20181;-81
2024/03/18 00:41:47;;;;;;;6.40;5.45;;;12.10;99.90;;;;;;5062033;28;21188;-81
2024/03/18 00:44:19;;;;;;;11.02;6.65;;;12.10;99.90;;;;;;5061091;28;20563;-79
2024/03/18 00:46:47;;;;;;;7.32;6.25;;;12.10;99.90;;;;;;5065701;28;20219;-79
2024/03/18 00:49:16;;;;;;;10.45;6.35;;;12.10;99.90;;;;;;5057949;28;20188;-80
2024/03/18 00:51:42;;;;;;;7.20;6.43;;;12.00;99.90;;;;;;5055393;28;20183;-79
2024/03/18 00:54:09;;;;;;;27.92;6.82;;;12.00;99.90;;;;;;5055428;28;20266;-79
2024/03/18 00:56:38;;;;;;;9.10;7.65;;;12.00;99.90;;;;;;5055599;28;20287;-79
2024/03/18 00:59:05;;;;;;;10.40;7.22;;;12.00;99.90;;;;;;5073395;28;20191;-79
2024/03/18 01:01:34;;;;;;;10.75;6.72;;;12.00;99.90;;;;;;5045818;28;20180;-79
2024/03/18 01:04:03;;;;;;;10.75;8.32;;;12.00;99.90;;;;;;5048488;28;20291;-79
2024/03/18 01:06:29;;;;;;;10.05;7.95;;;12.00;99.90;;;;;;5039803;28;20211;-79
2024/03/18 01:08:55;;;;;;;13.50;8.10;;;11.90;99.90;;;;;;5035547;28;20553;-77
2024/03/18 01:11:21;;;;;;;8.00;6.87;;;11.90;99.90;;;;;;5051868;28;20176;-79
2024/03/18 01:13:48;;;;;;;9.05;7.75;;;11.90;99.90;;;;;;5072868;28;20661;-79
2024/03/18 01:16:19;;;;;;;9.38;8.38;;;11.80;99.90;;;;;;5055245;28;20200;-79
2024/03/18 01:18:46;;;;;;;12.05;8.52;;;11.80;99.90;;;;;;5030726;28;20187;-79
2024/03/18 01:21:13;;;;;;;12.02;9.13;;;11.80;99.90;;;;;;5046556;28;20232;-79
2024/03/18 01:23:39;;;;;;;10.98;8.40;;;11.70;99.90;;;;;;5035447;28;20212;-79
2024/03/18 01:26:06;;;;;;;14.48;7.47;;;11.70;99.90;;;;;;5061233;28;20185;-80
2024/03/18 01:28:31;;;;;;;7.70;6.05;;;11.70;99.90;;;;;;5044292;28;20208;-79
2024/03/18 01:31:00;;;;;;;7.20;6.40;;;11.70;99.90;;;;;;5049957;28;20203;-79
2024/03/18 01:33:26;;;;;;;10.48;9.10;;;11.80;99.90;;;;;;5060809;28;20181;-79
2024/03/18 01:35:52;;;;;;;8.33;6.50;;;11.70;99.90;;;;;;5061078;28;20638;-80
2024/03/18 01:38:17;;;;;;;7.60;6.17;;;11.70;99.90;;;;;;5073914;28;20176;-79
2024/03/18 01:40:43;;;;;;;9.43;7.20;;;11.70;99.90;;;;;;5043437;28;20188;-80
2024/03/18 01:43:09;;;;;;;9.90;7.30;;;11.70;99.90;;;;;;5024670;28;20183;-80
2024/03/18 01:45:38;;;;;;;9.03;7.57;;;11.70;99.90;;;;;;5044565;28;20187;-80
2024/03/18 01:48:05;;;;;;;8.13;7.28;;;11.70;99.90;;;;;;5040767;28;20969;-80
2024/03/18 01:50:31;;;;;;;9.05;7.28;;;11.60;99.90;;;;;;5064422;28;20176;-80
2024/03/18 01:52:58;;;;;;;8.07;7.20;;;11.60;99.90;;;;;;5041321;28;20181;-80
2024/03/18 01:55:25;;;;;;;9.18;7.75;;;11.60;99.90;;;;;;5060934;28;20177;-81
2024/03/18 01:57:51;;;;;;;10.98;8.45;;;11.60;99.90;;;;;;5022298;28;20193;-80
2024/03/18 02:00:32;;;;;;;9.20;7.72;;;11.60;99.90;;;;;;5064301;28;20188;-80
2024/03/18 02:03:05;;;;;;;8.40;7.60;;;11.60;99.90;;;;;;5057741;28;20187;-80
2024/03/18 02:05:31;;;;;;;10.27;9.27;;;11.60;99.90;;;;;;5053400;28;20196;-81
2024/03/18 02:07:57;;;;;;;10.30;7.37;;;11.60;99.90;;;;;;5042677;28;20701;-80
2024/03/18 02:10:23;;;;;;;11.00;7.82;;;11.60;99.90;;;;;;5052156;28;20922;-81
2024/03/18 02:12:49;;;;;;;10.47;8.07;;;11.60;99.90;;;;;;5058439;28;20225;-81
2024/03/18 02:15:14;;;;;;;7.43;6.47;;;11.60;99.90;;;;;;5053659;28;20295;-81
2024/03/18 02:17:40;;;;;;;7.73;6.57;;;11.60;99.90;;;;;;5046601;28;20284;-81
2024/03/18 02:20:09;;;;;;;10.23;8.03;;;11.50;99.90;;;;;;5046187;28;20603;-81
2024/03/18 02:22:35;;;;;;;10.23;8.95;;;11.60;99.90;;;;;;5062135;28;20187;-81
2024/03/18 02:25:02;;;;;;;10.88;9.25;;;11.50;99.90;;;;;;5052842;28;20201;-81
2024/03/18 02:27:28;;;;;;;9.35;7.90;;;11.60;99.90;;;;;;5069541;28;20196;-80
2024/03/18 02:29:58;;;;;;;8.48;6.45;;;11.60;99.90;;;;;;5072310;28;20203;-81
2024/03/18 02:32:23;;;;;;;8.60;6.95;;;11.60;99.90;;;;;;5046042;28;20633;-80
2024/03/18 02:34:49;;;;;;;10.60;8.47;;;11.60;99.90;;;;;;5038431;28;20192;-80
2024/03/18 02:37:15;;;;;;;8.90;8.00;;;11.60;99.90;;;;;;5061192;28;20709;-80
2024/03/18 02:39:41;;;;;;;8.40;7.50;;;11.60;99.90;;;;;;5050726;28;20617;-82
2024/03/18 02:42:07;;;;;;;8.52;7.32;;;11.60;99.90;;;;;;5034590;28;20634;-81
2024/03/18 02:44:33;;;;;;;8.10;7.13;;;11.60;99.90;;;;;;5027201;28;20295;-81
2024/03/18 02:46:59;;;;;;;9.43;8.40;;;11.60;99.90;;;;;;5054903;28;20196;-81
2024/03/18 02:49:25;;;;;;;9.40;8.40;;;11.60;99.90;;;;;;5060435;28;20658;-81
2024/03/18 02:51:51;;;;;;;12.03;8.13;;;11.60;99.90;;;;;;5049181;28;20610;-81
2024/03/18 02:54:17;;;;;;;10.85;9.10;;;11.60;99.90;;;;;;5048206;28;20191;-80
2024/03/18 02:56:43;;;;;;;8.67;7.80;;;11.60;99.90;;;;;;5073033;28;20196;-81
2024/03/18 02:59:09;;;;;;;9.97;8.93;;;11.60;99.90;;;;;;5040614;28;21069;-81
2024/03/18 03:01:35;;;;;;;14.55;10.98;;;11.60;99.90;;;;;;5037665;28;21136;-81
2024/03/18 03:04:01;;;;;;;10.88;9.40;;;11.60;99.90;;;;;;5059645;28;20574;-80
2024/03/18 03:06:28;;;;;;;11.30;9.40;;;11.60;99.90;;;;;;5042600;28;20239;-80
2024/03/18 03:08:57;;;;;;;10.55;9.50;;;11.60;99.90;;;;;;5057054;28;20172;-80
2024/03/18 03:11:28;;;;;;;9.80;8.20;;;11.60;99.90;;;;;;5046746;28;20693;-80
2024/03/18 03:13:54;;;;;;;12.10;9.73;;;11.70;99.90;;;;;;5029892;28;20234;-80
2024/03/18 03:16:20;;;;;;;9.53;8.13;;;11.70;99.90;;;;;;5054604;28;20188;-80
2024/03/18 03:18:46;;;;;;;10.20;7.57;;;11.70;99.90;;;;;;5034650;28;20227;-80
2024/03/18 03:21:11;;;;;;;12.20;10.60;;;11.70;99.90;;;;;;5049382;28;20184;-80
2024/03/18 03:23:37;;;;;;;12.70;8.53;;;11.70;99.90;;;;;;5063900;28;20192;-79
2024/03/18 03:26:03;;;;;;;12.27;9.87;;;11.70;99.90;;;;;;5072939;28;20168;-80
2024/03/18 03:28:29;;;;;;;11.98;10.18;;;11.70;99.90;;;;;;5065973;28;20173;-80
2024/03/18 03:31:06;;;;;;;11.77;9.20;;;11.70;99.90;;;;;;5047618;28;20260;-80
2024/03/18 03:33:35;;;;;;;11.15;9.30;;;11.70;99.90;;;;;;5045329;28;20184;-80
2024/03/18 03:36:01;;;;;;;10.25;8.85;;;11.70;99.90;;;;;;5044356;28;20187;-80
2024/03/18 03:38:28;;;;;;;8.77;7.25;;;11.80;99.90;;;;;;5053161;28;20221;-80
2024/03/18 03:40:54;;;;;;;9.52;7.10;;;11.80;99.90;;;;;;5044477;28;20525;-80
2024/03/18 03:43:21;;;;;;;9.18;7.88;;;11.80;99.90;;;;;;5061308;28;20629;-80
2024/03/18 03:45:59;;;;;;;8.05;7.30;;;11.80;99.90;;;;;;5047708;28;20198;-80
2024/03/18 03:48:29;;;;;;;8.95;7.90;;;11.90;99.90;;;;;;5066848;28;20234;-80
2024/03/18 03:50:56;;;;;;;7.43;6.65;;;11.90;99.90;;;;;;5016270;28;20172;-80
2024/03/18 03:53:25;;;;;;;9.65;6.45;;;11.90;99.90;;;;;;5075093;28;20282;-81
2024/03/18 03:56:00;;;;;;;7.65;6.63;;;11.90;99.90;;;;;;5048054;28;20263;-79
2024/03/18 03:58:27;;;;;;;9.45;8.30;;;12.00;99.90;;;;;;5057785;28;20579;-79
2024/03/18 04:00:53;;;;;;;9.98;8.07;;;12.00;99.90;;;;;;5012435;28;20181;-79
2024/03/18 04:03:25;;;;;;;8.05;7.00;;;11.90;99.90;;;;;;5063046;28;20203;-79
2024/03/18 04:05:54;;;;;;;11.70;8.73;;;12.00;99.90;;;;;;5038097;28;20181;-79
2024/03/18 04:08:22;;;;;;;10.55;7.63;;;12.00;99.90;;;;;;5045662;28;20951;-79
2024/03/18 04:10:48;;;;;;;11.27;9.55;;;12.00;99.90;;;;;;5057268;28;20229;-80
2024/03/18 04:13:15;;;;;;;8.95;7.60;;;12.00;99.90;;;;;;5065684;28;20188;-80
2024/03/18 04:15:44;;;;;;;12.20;11.00;;;12.00;99.90;;;;;;5055054;28;20191;-80
2024/03/18 04:18:10;;;;;;;11.15;8.75;;;12.00;99.90;;;;;;5069677;28;20200;-80
2024/03/18 04:20:39;;;;;;;12.82;8.95;;;12.00;99.90;;;;;;5056008;28;20168;-80
2024/03/18 04:23:05;;;;;;;9.70;8.68;;;12.00;99.90;;;;;;5033729;28;20182;-82
2024/03/18 04:25:34;;;;;;;11.50;8.30;;;12.00;99.90;;;;;;5066152;28;20654;-81
2024/03/18 04:28:02;;;;;;;12.80;10.27;;;12.00;99.90;;;;;;5049434;28;20198;-82
2024/03/18 04:30:30;;;;;;;10.45;9.15;;;12.00;99.90;;;;;;5057587;28;20596;-81
2024/03/18 04:32:56;;;;;;;9.52;8.63;;;12.00;99.90;;;;;;5046162;28;20171;-81
2024/03/18 04:35:21;;;;;;;15.20;9.23;;;12.00;99.90;;;;;;5063765;28;20736;-80
2024/03/18 04:37:56;;;;;;;11.40;9.63;;;12.00;99.90;;;;;;5059748;28;20200;-81
2024/03/18 04:40:24;;;;;;;9.73;7.90;;;12.00;99.90;;;;;;5041884;28;20184;-81
2024/03/18 04:42:54;;;;;;;12.50;11.07;;;12.00;99.90;;;;;;5073400;28;20634;-80
2024/03/18 04:45:21;;;;;;;11.18;9.23;;;12.00;99.90;;;;;;5073659;28;20203;-81
2024/03/18 04:47:51;;;;;;;10.65;9.10;;;12.00;99.90;;;;;;5053432;28;20189;-80
2024/03/18 04:50:27;;;;;;;13.73;10.38;;;12.00;99.90;;;;;;5059339;28;20267;-79
2024/03/18 04:52:54;;;;;;;11.35;10.15;;;12.00;99.90;;;;;;5071643;28;20468;-79
2024/03/18 04:55:21;;;;;;;11.50;9.88;;;12.00;99.90;;;;;;5056409;28;20173;-81
2024/03/18 04:57:55;;;;;;;10.27;8.95;;;12.00;99.90;;;;;;5069406;28;20196;-79
2024/03/18 05:00:22;;;;;;;9.80;8.10;;;12.00;99.90;;;;;;5095985;28;20318;-79
2024/03/18 05:02:48;;;;;;;11.13;8.50;;;12.00;99.90;;;;;;5062460;28;20177;-79
2024/03/18 05:05:14;;;;;;;13.70;9.90;;;12.00;99.90;;;;;;5088292;28;20189;-79
2024/03/18 05:07:41;;;;;;;14.38;10.30;;;12.00;99.90;;;;;;5095619;28;20210;-79
2024/03/18 05:10:07;;;;;;;12.73;10.05;;;12.00;99.90;;;;;;5080231;28;20269;-79
2024/03/18 05:12:33;;;;;;;11.77;9.02;;;12.00;99.90;;;;;;5070101;28;20157;-79
2024/03/18 05:14:59;;;;;;;11.13;9.33;;;12.00;99.90;;;;;;5070128;28;20195;-79
2024/03/18 05:17:25;;;;;;;11.80;9.93;;;12.00;99.90;;;;;;5052483;28;20641;-79
2024/03/18 05:19:51;;;;;;;11.40;8.63;;;12.00;99.90;;;;;;5080539;28;20844;-79
2024/03/18 05:22:18;;;;;;;11.18;8.82;;;12.00;99.90;;;;;;5084186;28;20221;-79
2024/03/18 05:24:43;;;;;;;11.77;9.05;;;12.00;99.90;;;;;;5095678;28;20196;-78
2024/03/18 05:27:11;;;;;;;11.30;9.63;;;12.00;99.90;;;;;;5061486;28;20196;-78
2024/03/18 05:29:37;;;;;;;12.20;10.10;;;12.00;99.90;;;;;;5061487;28;20165;-78
2024/03/18 05:32:10;;;;;;;11.83;9.07;;;12.00;99.90;;;;;;5078834;28;20176;-79
2024/03/18 05:34:36;;;;;;;10.90;9.75;;;12.00;99.90;;;;;;5079467;28;20579;-79
2024/03/18 05:37:02;;;;;;;10.75;8.77;;;12.00;99.90;;;;;;5086290;28;20184;-79
2024/03/18 05:39:29;;;;;;;10.70;8.67;;;12.00;99.90;;;;;;5094460;28;20164;-80
2024/03/18 05:41:55;;;;;;;12.15;9.75;;;12.00;99.90;;;;;;5056242;28;20595;-75
2024/03/18 05:44:20;;;;;;;10.73;9.53;;;12.00;99.90;;;;;;5071930;28;20200;-75
2024/03/18 05:46:46;;;;;;;12.43;10.00;;;11.90;99.90;;;;;;5070481;28;20597;-75
2024/03/18 05:49:12;;;;;;;12.23;10.77;;;11.90;99.90;;;;;;5034781;28;20264;-75
2024/03/18 05:51:37;;;;;;;14.00;10.07;;;11.90;99.90;;;;;;5034192;28;20200;-75
2024/03/18 05:54:03;;;;;;;11.63;9.30;;;11.80;99.90;;;;;;5034237;28;20188;-74
2024/03/18 05:56:29;;;;;;;15.47;10.57;;;11.90;99.90;;;;;;5046020;28;20295;-75
2024/03/18 05:58:55;;;;;;;8.68;7.70;;;11.80;99.90;;;;;;5070554;28;20203;-75
2024/03/18 06:01:21;;;;;;;13.80;10.23;;;11.90;99.90;;;;;;5080080;28;20665;-74
2024/03/18 06:03:46;;;;;;;10.80;8.57;;;11.90;99.90;;;;;;5059208;28;20200;-75
2024/03/18 06:06:12;;;;;;;12.83;10.40;;;12.00;99.90;;;;;;5058770;28;20204;-75
2024/03/18 06:08:38;;;;;;;11.23;8.80;;;12.00;99.90;;;;;;5062388;28;20732;-75
2024/03/18 06:11:04;;;;;;;13.67;10.97;;;12.00;99.90;;;;;;5056794;28;20583;-74
2024/03/18 06:13:31;;;;;;;11.68;10.38;;;12.00;99.90;;;;;;5070263;28;20176;-75
2024/03/18 06:15:56;;;;;;;14.02;9.30;;;12.00;99.90;;;;;;5075247;28;20199;-75
2024/03/18 06:18:22;;;;;;;15.83;11.40;;;12.00;99.90;;;;;;5052776;28;20203;-75
2024/03/18 06:20:52;;;;;;;11.87;9.80;;;12.00;99.90;;;;;;5068368;28;20733;-75
2024/03/18 06:23:22;;;;;;;12.27;9.30;;;12.10;99.90;;;;;;5063632;28;20181;-74
2024/03/18 06:25:57;;;;;;;9.70;8.70;;;12.10;99.90;;;;;;5043770;28;20611;-75
2024/03/18 06:28:29;;;;;;;11.93;10.43;;;12.10;99.90;;;;;;5053866;28;21189;-75
2024/03/18 06:30:56;;;;;;;11.38;8.77;;;12.20;99.90;;;;;;5042824;28;20653;-75
2024/03/18 06:33:22;;;;;;;11.95;9.70;;;12.20;99.90;;;;;;5065579;28;20168;-75
2024/03/18 06:35:49;;;;;;;9.95;8.85;;;12.30;99.90;;;;;;5028732;28;20168;-74
2024/03/18 06:38:15;;;;;;;16.50;10.27;;;12.30;99.90;;;;;;5071199;28;20207;-74
2024/03/18 06:40:42;;;;;;;11.98;8.70;;;12.20;99.90;;;;;;5071453;28;20255;-75
2024/03/18 06:43:08;;;;;;;11.73;8.52;;;12.30;99.90;;;;;;5048567;28;20209;-74
2024/03/18 06:45:35;;;;;;;8.70;7.65;;;12.30;99.90;;;;;;5049634;28;20210;-75
2024/03/18 06:48:03;;;;;;;9.38;8.02;;;12.40;99.90;;;;;;5076086;28;20208;-73
2024/03/18 06:50:29;;;;;;;8.13;7.27;;;12.50;99.90;;;;;;5045670;28;20185;-75
2024/03/18 06:52:56;;;;;;;10.30;8.60;;;12.50;99.90;;;;;;5039077;28;20990;-75
2024/03/18 06:55:21;;;;;;;9.47;8.00;;;12.50;99.90;;;;;;5033416;28;20177;-75
2024/03/18 06:57:47;;;;;;;14.00;9.13;;;12.60;99.90;;;;;;5059045;28;20611;-75
2024/03/18 07:00:13;;;;;;;10.17;8.60;;;12.60;99.90;;;;;;5050976;28;20582;-73
2024/03/18 07:02:39;;;;;;;11.87;8.77;;;12.60;99.90;;;;;;5031512;28;20189;-73
2024/03/18 07:05:05;;;;;;;10.57;8.03;;;12.60;99.90;;;;;;5049695;28;20639;-74
2024/03/18 07:07:31;;;;;;;9.27;8.30;;;12.70;99.90;;;;;;5016205;28;20212;-74
2024/03/18 07:09:57;;;;;;;14.07;9.93;;;12.80;99.90;;;;;;5053594;28;22261;-74
2024/03/18 07:12:23;;;;;;;10.03;8.93;;;12.90;99.90;;;;;;5069846;28;20215;-74
2024/03/18 07:14:49;;;;;;;9.57;8.38;;;13.00;99.90;;;;;;5035581;28;20188;-74
2024/03/18 07:17:14;;;;;;;9.63;8.63;;;13.10;99.90;;;;;;5070745;28;20191;-74
2024/03/18 07:19:40;;;;;;;9.87;7.97;;;13.20;99.90;;;;;;5061869;28;20701;-74
2024/03/18 07:22:07;;;;;;;9.87;8.50;;;13.20;99.90;;;;;;5034548;28;20585;-74
2024/03/18 07:24:35;;;;;;;8.50;7.50;;;13.20;99.90;;;;;;5031489;28;20208;-75
2024/03/18 07:27:02;;;;;;;9.87;8.20;;;13.30;99.90;;;;;;5051183;28;20607;-74
2024/03/18 07:29:27;;;;;;;9.30;8.23;;;13.40;99.90;;;;;;5052575;28;20184;-74
2024/03/18 07:31:56;;;;;;;10.00;8.87;;;13.40;99.90;;;;;;5061512;28;20579;-73
2024/03/18 07:34:24;;;;;;;9.03;7.70;;;13.40;99.90;;;;;;5049377;28;20287;-74
2024/03/18 07:36:51;;;;;;;9.00;8.10;;;13.40;99.90;;;;;;5032335;28;20642;-74
2024/03/18 07:39:17;;;;;;;12.70;8.50;;;13.50;99.90;;;;;;5032699;28;20959;-74
2024/03/18 07:41:43;;;;;;;9.90;8.00;;;13.50;99.90;;;;;;5050457;28;20583;-75
2024/03/18 07:44:08;;;;;;;12.03;9.07;;;13.60;99.90;;;;;;5039512;28;21029;-74
2024/03/18 07:46:35;;;;;;;10.63;7.33;;;13.70;99.90;;;;;;5038743;28;20636;-74
2024/03/18 07:49:01;;;;;;;11.43;8.77;;;13.80;99.90;;;;;;5024174;28;20572;-74
2024/03/18 07:51:27;;;;;;;9.80;8.20;;;13.90;99.90;;;;;;5049956;28;20215;-74
2024/03/18 07:53:53;;;;;;;9.57;8.57;;;13.90;99.90;;;;;;5049290;28;20222;-74
2024/03/18 07:56:18;;;;;;;10.57;8.50;;;14.10;99.90;;;;;;5049577;28;20224;-74
2024/03/18 07:58:44;;;;;;;9.23;8.23;;;14.10;99.90;;;;;;5023106;28;20762;-74
2024/03/18 08:01:11;;;;;;;8.47;7.60;;;14.10;99.90;;;;;;5020245;28;20187;-74
2024/03/18 08:03:37;;;;;;;8.50;7.70;;;14.20;99.90;;;;;;5019426;28;20698;-74
2024/03/18 08:06:11;;;;;;;8.03;6.80;;;14.20;99.90;;;;;;5031163;28;20592;-74
2024/03/18 08:08:36;;;;;;;9.80;7.30;;;14.20;99.90;;;;;;5049827;28;20595;-75
2024/03/18 08:11:02;;;;;;;8.93;8.03;;;14.30;99.90;;;;;;5049678;28;20613;-73
2024/03/18 08:13:28;;;;;;;9.53;8.60;;;14.40;99.90;;;;;;5043562;28;20185;-74
2024/03/18 08:15:54;;;;;;;8.90;7.27;;;14.40;99.90;;;;;;5049064;28;20583;-73
2024/03/18 08:18:20;;;;;;;7.67;6.80;;;14.50;99.90;;;;;;5031874;28;20173;-74
2024/03/18 08:20:45;;;;;;;9.57;7.20;;;14.60;99.90;;;;;;5031685;28;20173;-74
2024/03/18 08:23:11;;;;;;;8.37;7.47;;;14.70;99.90;;;;;;5048821;28;20173;-73
2024/03/18 08:25:37;;;;;;;7.90;7.20;;;14.70;99.90;;;;;;5049179;28;20288;-73
2024/03/18 08:28:03;;;;;;;8.40;7.60;;;14.80;99.90;;;;;;5046135;28;20200;-73
2024/03/18 08:30:29;;;;;;;11.80;7.17;;;14.90;99.90;;;;;;5045213;28;20542;-75
2024/03/18 08:32:54;;;;;;;8.60;7.03;;;15.10;99.90;;;;;;5030389;28;20571;-75
2024/03/18 08:35:20;;;;;;;7.57;6.77;;;15.20;99.90;;;;;;5037716;28;20651;-74
2024/03/18 08:37:47;;;;;;;6.73;5.97;;;15.30;99.90;;;;;;5023129;28;20719;-76
2024/03/18 08:40:13;;;;;;;8.23;6.60;;;15.40;99.90;;;;;;5049941;28;20633;-74
2024/03/18 08:42:40;;;;;;;7.03;6.33;;;15.60;99.90;;;;;;5042367;28;20588;-77
2024/03/18 08:45:08;;;;;;;7.17;6.47;;;15.80;99.90;;;;;;5035186;28;20668;-77
2024/03/18 08:47:34;;;;;;;7.50;6.70;;;16.20;99.90;;;;;;5053913;28;20619;-75
2024/03/18 08:50:00;;;;;;;7.87;7.10;;;16.60;99.90;;;;;;5053688;28;20572;-74
2024/03/18 08:52:27;;;;;;;7.73;6.10;;;17.10;99.90;;;;;;5035337;28;20260;-76
2024/03/18 08:54:54;;;;;;;6.47;5.77;;;17.70;99.90;;;;;;5043702;28;20572;-76
2024/03/18 08:57:20;;;;;;;6.93;5.50;;;18.20;99.90;;;;;;5007460;28;21236;-75
2024/03/18 08:59:46;;;;;;;6.43;5.67;;;18.60;99.90;;;;;;5024851;28;20577;-79
2024/03/18 09:02:12;;;;;;;6.10;4.97;;;19.00;99.90;;;;;;5045629;28;20621;-79
2024/03/18 09:04:40;;;;;;;5.93;4.50;;;19.60;99.90;;;;;;5054448;28;20204;-79
2024/03/18 09:07:07;;;;;;;7.37;5.37;;;20.20;99.90;;;;;;5035161;28;20646;-78
2024/03/18 09:09:35;;;;;;;5.00;4.20;;;20.70;99.90;;;;;;5053293;28;20579;-78
2024/03/18 09:12:02;;;;;;;6.70;5.27;;;21.20;99.90;;;;;;5053293;28;20596;-78
2024/03/18 09:14:29;;;;;;;4.70;4.23;;;21.80;99.90;;;;;;5046697;28;20592;-79
2024/03/18 09:16:55;;;;;;;4.40;3.90;;;22.30;99.90;;;;;;5041419;28;21271;-80
2024/03/18 09:19:21;;;;;;;4.40;3.60;;;22.90;99.90;;;;;;5025423;28;20702;-80
2024/03/18 09:21:47;;;;;;;3.90;3.60;;;23.50;99.90;;;;;;5035274;28;20184;-79
2024/03/18 09:24:14;;;;;;;5.40;3.90;;;24.20;99.90;;;;;;5024648;28;20654;-80
2024/03/18 09:26:40;;;;;;;4.33;3.53;;;24.80;99.90;;;;;;5025835;28;20623;-79
2024/03/18 09:29:06;;;;;;;3.63;3.33;;;25.00;99.90;;;;;;5008962;28;21591;-77
2024/03/18 09:31:33;;;;;;;4.17;2.60;;;25.20;99.90;;;;;;5017085;28;20600;-76
2024/03/18 09:33:59;;;;;;;3.20;2.57;;;25.50;99.90;;;;;;5045841;28;20592;-76
2024/03/18 09:36:24;;;;;;;3.03;2.33;;;25.60;99.90;;;;;;5053898;28;20208;-77
2024/03/18 09:38:50;;;;;;;3.70;2.30;;;25.50;99.90;;;;;;5035523;28;20188;-76
2024/03/18 09:41:19;;;;;;;3.47;2.60;;;25.30;99.90;;;;;;5053719;28;20177;-76
2024/03/18 09:43:45;;;;;;;6.57;2.50;;;25.10;99.90;;;;;;5050400;28;20187;-76
2024/03/18 09:46:14;;;;;;;3.00;2.30;;;25.10;99.90;;;;;;5048528;28;20584;-76
2024/03/18 09:48:40;;;;;;;4.03;2.83;;;25.00;99.90;;;;;;5049126;28;20647;-76
2024/03/18 09:51:15;;;;;;;4.33;3.10;;;24.80;99.90;;;;;;5051389;28;20621;-76
2024/03/18 09:53:47;;;;;;;5.00;3.50;;;24.60;99.90;;;;;;5046262;28;20219;-75
2024/03/18 09:56:16;;;;;;;4.03;2.97;;;24.30;99.90;;;;;;5051891;28;21145;-76
2024/03/18 09:58:42;;;;;;;5.53;2.87;;;24.20;99.90;;;;;;5041004;28;20575;-76
2024/03/18 10:01:12;;;;;;;4.43;2.80;;;24.00;99.90;;;;;;5028044;28;20643;-75
2024/03/18 10:03:44;;;;;;;7.57;3.10;;;24.00;99.90;;;;;;5031348;28;20702;-76
2024/03/18 10:06:12;;;;;;;4.47;2.90;;;24.10;99.90;;;;;;5025255;28;21187;-76
2024/03/18 10:08:39;;;;;;;4.17;1.97;;;24.10;99.90;;;;;;5026748;28;20576;-76
2024/03/18 10:11:07;;;;;;;4.33;2.00;;;24.00;99.90;;;;;;5013559;28;20592;-75
2024/03/18 10:13:33;;;;;;;6.10;2.33;;;24.00;99.90;;;;;;5046858;28;20698;-76
2024/03/18 10:16:00;;;;;;;2.93;1.10;;;23.80;99.90;;;;;;5050071;28;20583;-75
2024/03/18 10:18:26;;;;;;;2.67;1.20;;;23.50;99.90;;;;;;5028313;28;20650;-76
2024/03/18 10:20:53;;;;;;;3.60;1.40;;;23.20;99.90;;;;;;5041497;28;20591;-76
2024/03/18 10:23:20;;;;;;;6.07;1.93;;;23.00;99.90;;;;;;5046235;28;20230;-76
2024/03/18 10:25:46;;;;;;;4.20;1.00;;;23.20;99.90;;;;;;5031738;28;20654;-77
2024/03/18 10:28:13;;;;;;;3.80;1.07;;;23.50;99.90;;;;;;5046388;28;20620;-76
2024/03/18 10:30:39;;;;;;;3.37;1.20;;;23.80;99.90;;;;;;5033713;28;20204;-76
2024/03/18 10:33:11;;;;;;;3.67;1.00;;;23.90;99.90;;;;;;5035255;28;20596;-76
2024/03/18 10:35:39;;;;;;;4.43;1.27;;;23.90;99.90;;;;;;5028224;28;20595;-76
2024/03/18 10:38:06;;;;;;;2.43;1.10;;;23.80;99.90;;;;;;5035578;28;20627;-75
2024/03/18 10:40:40;;;;;;;4.93;1.10;;;23.60;99.90;;;;;;5025575;28;20626;-76
2024/03/18 10:43:14;;;;;;;4.57;1.20;;;23.40;99.90;;;;;;5040584;28;20698;-76
2024/03/18 10:45:48;;;;;;;2.87;1.23;;;23.20;99.90;;;;;;5028960;28;21265;-76
2024/03/18 10:48:17;;;;;;;3.53;0.80;;;23.00;99.90;;;;;;5025035;28;20660;-76
2024/03/18 10:50:46;;;;;;;2.20;0.90;;;22.70;99.90;;;;;;5052185;28;20572;-76
2024/03/18 10:53:24;;;;;;;5.97;1.20;;;22.70;99.90;;;;;;5024786;28;20584;-75
2024/03/18 10:55:55;;;;;;;4.57;1.97;;;22.90;99.90;;;;;;5016732;28;20660;-76
2024/03/18 10:58:26;;;;;;;2.07;1.00;;;23.20;99.90;;;;;;5042668;28;20682;-75
2024/03/18 11:00:53;;;;;;;3.60;1.10;;;23.30;99.90;;;;;;5041377;28;20593;-75
2024/03/18 11:03:20;;;;;;;3.30;1.23;;;23.40;99.90;;;;;;5035227;28;21315;-75
2024/03/18 11:05:49;;;;;;;2.73;1.50;;;23.20;99.90;;;;;;5042576;28;20635;-74
2024/03/18 11:08:18;;;;;;;3.33;1.50;;;23.00;99.90;;;;;;5016696;28;21177;-74
2024/03/18 11:10:45;;;;;;;2.33;1.00;;;22.80;99.90;;;;;;5024943;28;20626;-74
2024/03/18 11:13:19;;;;;;;3.00;0.93;;;22.60;99.90;;;;;;5031864;28;20770;-75
2024/03/18 11:15:48;;;;;;;5.40;1.23;;;22.40;99.90;;;;;;5016434;28;20584;-75
2024/03/18 11:18:34;;;;;;;5.37;1.77;;;22.30;99.90;;;;;;5012954;28;21070;-75
2024/03/18 11:21:02;;;;;;;4.73;0.87;;;22.20;99.90;;;;;;5030488;28;20584;-75
2024/03/18 11:23:30;;;;;;;3.43;1.07;;;22.20;99.90;;;;;;5029960;28;20581;-75
2024/03/18 11:26:07;;;;;;;4.83;1.07;;;22.30;99.90;;;;;;5029465;28;20691;-75
2024/03/18 11:28:35;;;;;;;1.43;0.70;;;22.30;99.90;;;;;;5044685;28;20611;-75
2024/03/18 11:31:02;;;;;;;4.73;1.50;;;22.50;99.90;;;;;;5031524;28;20587;-75
2024/03/18 11:33:28;;;;;;;3.10;0.90;;;22.70;99.90;;;;;;5011857;28;20619;-75
2024/03/18 11:35:54;;;;;;;2.90;0.97;;;22.80;99.90;;;;;;5012941;28;21014;-73
2024/03/18 11:38:20;;;;;;;4.90;1.13;;;22.90;99.90;;;;;;5012747;28;20181;-74
2024/03/18 11:40:45;;;;;;;2.90;1.00;;;23.20;99.90;;;;;;5020423;28;20678;-75
2024/03/18 11:43:13;;;;;;;6.73;1.20;;;23.40;99.90;;;;;;5031855;28;20208;-74
2024/03/18 11:45:39;;;;;;;4.17;1.77;;;23.50;99.90;;;;;;5032990;28;20663;-74
2024/03/18 11:48:06;;;;;;;3.27;1.10;;;23.70;99.90;;;;;;5031866;28;20620;-76
2024/03/18 11:50:34;;;;;;;1.90;0.80;;;23.90;99.90;;;;;;5013228;28;20174;-74
2024/03/18 11:53:03;;;;;;;2.93;1.00;;;24.20;99.90;;;;;;5029619;28;20585;-75
2024/03/18 11:55:38;;;;;;;3.10;0.90;;;24.40;99.90;;;;;;5030452;28;20581;-74
2024/03/18 11:58:05;;;;;;;2.83;0.90;;;24.60;99.90;;;;;;5030164;28;20624;-74
2024/03/18 12:00:36;;;;;;;4.50;1.30;;;24.80;99.90;;;;;;5030553;28;20951;-75
2024/03/18 12:03:06;;;;;;;5.33;1.77;;;24.90;99.90;;;;;;5034100;28;20653;-75
2024/03/18 12:05:38;;;;;;;2.90;0.90;;;25.10;99.90;;;;;;5032311;28;20642;-75
2024/03/18 12:08:08;;;;;;;2.63;0.90;;;25.30;99.90;;;;;;5049896;28;21033;-75
2024/03/18 12:10:34;;;;;;;2.13;1.10;;;25.50;99.90;;;;;;5032545;28;20598;-74
2024/03/18 12:13:02;;;;;;;3.07;1.00;;;25.60;99.90;;;;;;5051981;28;20945;-74
2024/03/18 12:15:28;;;;;;;2.30;0.83;;;25.60;99.90;;;;;;5054410;28;20580;-74
2024/03/18 12:17:53;;;;;;;5.93;1.17;;;25.40;99.90;;;;;;5060211;28;20620;-73
2024/03/18 12:20:26;;;;;;;2.40;1.20;;;25.10;99.90;;;;;;5082953;28;20176;-73
2024/03/18 12:23:04;;;;;;;4.23;1.20;;;24.70;99.90;;;;;;5033050;28;20248;-74
2024/03/18 12:31:12;;;;;;;5.13;1.60;;;23.80;99.90;;;;;;5036733;28;20586;-74
2024/03/18 12:33:45;;;;;;;2.80;1.00;;;23.70;99.90;;;;;;5054620;28;20603;-74
2024/03/18 12:36:16;;;;;;;3.27;1.70;;;23.60;99.90;;;;;;5020673;28;20674;-75
2024/03/18 12:38:48;;;;;;;4.03;1.53;;;23.60;99.90;;;;;;5020970;28;20587;-74
2024/03/18 12:41:19;;;;;;;3.60;1.77;;;23.50;99.90;;;;;;5036583;28;20609;-75
2024/03/18 12:43:46;;;;;;;4.90;1.60;;;23.30;99.90;;;;;;5052940;28;20587;-74
2024/03/18 12:46:16;;;;;;;5.07;1.40;;;23.10;99.90;;;;;;5035630;28;20579;-75
2024/03/18 12:48:43;;;;;;;3.03;1.30;;;22.70;99.90;;;;;;5039067;28;20573;-74
2024/03/18 12:51:11;;;;;;;4.60;1.70;;;22.50;99.90;;;;;;5032369;28;20675;-74